sensor_id;sensor_type;location;lat;lon;timestamp;P1;durP1;ratioP1;P2;durP2;ratioP2
50205;SDS011;36098;48.390;10.856;2023-06-24T00:00:49;3.33;;;2.00;;
50205;SDS011;36098;48.390;10.856;2023-06-24T00:03:17;3.00;;;1.92;;
50205;SDS011;36098;48.390;10.856;2023-06-24T00:05:42;3.47;;;2.10;;
50205;SDS011;36098;48.390;10.856;2023-06-24T00:08:08;2.53;;;1.98;;
50205;SDS011;36098;48.390;10.856;2023-06-24T00:10:33;2.97;;;2.03;;
50205;SDS011;36098;48.390;10.856;2023-06-24T00:12:59;2.50;;;1.90;;
50205;SDS011;36098;48.390;10.856;2023-06-24T00:15:27;2.13;;;1.80;;
50205;SDS011;36098;48.390;10.856;2023-06-24T00:17:53;2.55;;;2.05;;
50205;SDS011;36098;48.390;10.856;2023-06-24T00:20:18;3.13;;;2.13;;
50205;SDS011;36098;48.390;10.856;2023-06-24T00:22:45;3.65;;;2.03;;
50205;SDS011;36098;48.390;10.856;2023-06-24T00:25:13;2.22;;;1.88;;
50205;SDS011;36098;48.390;10.856;2023-06-24T00:27:38;2.40;;;1.90;;
50205;SDS011;36098;48.390;10.856;2023-06-24T00:30:04;2.10;;;1.58;;
50205;SDS011;36098;48.390;10.856;2023-06-24T00:32:29;2.22;;;1.77;;
50205;SDS011;36098;48.390;10.856;2023-06-24T00:34:55;3.33;;;2.00;;
50205;SDS011;36098;48.390;10.856;2023-06-24T00:37:23;3.92;;;1.90;;
50205;SDS011;36098;48.390;10.856;2023-06-24T00:39:48;2.30;;;1.80;;
50205;SDS011;36098;48.390;10.856;2023-06-24T00:42:13;2.40;;;1.90;;
50205;SDS011;36098;48.390;10.856;2023-06-24T00:44:38;2.80;;;2.08;;
50205;SDS011;36098;48.390;10.856;2023-06-24T00:47:04;2.30;;;1.80;;
50205;SDS011;36098;48.390;10.856;2023-06-24T00:49:30;2.30;;;1.70;;
50205;SDS011;36098;48.390;10.856;2023-06-24T00:51:56;2.60;;;1.77;;
50205;SDS011;36098;48.390;10.856;2023-06-24T00:54:21;2.97;;;2.10;;
50205;SDS011;36098;48.390;10.856;2023-06-24T00:56:46;3.42;;;2.00;;
50205;SDS011;36098;48.390;10.856;2023-06-24T00:59:13;2.72;;;2.05;;
50205;SDS011;36098;48.390;10.856;2023-06-24T01:01:40;2.33;;;1.75;;
50205;SDS011;36098;48.390;10.856;2023-06-24T01:04:06;3.08;;;2.00;;
50205;SDS011;36098;48.390;10.856;2023-06-24T01:06:34;2.67;;;1.85;;
50205;SDS011;36098;48.390;10.856;2023-06-24T01:09:00;3.20;;;2.10;;
50205;SDS011;36098;48.390;10.856;2023-06-24T01:11:28;3.25;;;1.70;;
50205;SDS011;36098;48.390;10.856;2023-06-24T01:13:56;2.28;;;1.88;;
50205;SDS011;36098;48.390;10.856;2023-06-24T01:16:28;2.13;;;1.77;;
50205;SDS011;36098;48.390;10.856;2023-06-24T01:18:57;2.58;;;1.88;;
50205;SDS011;36098;48.390;10.856;2023-06-24T01:27:17;2.38;;;1.88;;
50205;SDS011;36098;48.390;10.856;2023-06-24T01:29:57;2.72;;;2.00;;
50205;SDS011;36098;48.390;10.856;2023-06-24T01:32:44;2.40;;;1.90;;
50205;SDS011;36098;48.390;10.856;2023-06-24T01:35:16;2.70;;;1.90;;
50205;SDS011;36098;48.390;10.856;2023-06-24T01:37:49;2.33;;;1.65;;
50205;SDS011;36098;48.390;10.856;2023-06-24T01:40:26;3.03;;;1.95;;
50205;SDS011;36098;48.390;10.856;2023-06-24T01:42:53;2.58;;;1.80;;
50205;SDS011;36098;48.390;10.856;2023-06-24T01:45:26;2.25;;;1.90;;
50205;SDS011;36098;48.390;10.856;2023-06-24T01:47:54;2.47;;;1.90;;
50205;SDS011;36098;48.390;10.856;2023-06-24T01:50:32;2.20;;;1.70;;
50205;SDS011;36098;48.390;10.856;2023-06-24T01:52:58;2.80;;;1.83;;
50205;SDS011;36098;48.390;10.856;2023-06-24T01:55:27;2.40;;;1.80;;
50205;SDS011;36098;48.390;10.856;2023-06-24T01:57:54;2.00;;;1.60;;
50205;SDS011;36098;48.390;10.856;2023-06-24T02:00:21;2.05;;;1.73;;
50205;SDS011;36098;48.390;10.856;2023-06-24T02:02:49;3.47;;;1.77;;
50205;SDS011;36098;48.390;10.856;2023-06-24T02:05:15;2.67;;;1.83;;
50205;SDS011;36098;48.390;10.856;2023-06-24T02:07:43;2.42;;;1.85;;
50205;SDS011;36098;48.390;10.856;2023-06-24T02:10:11;2.70;;;1.90;;
50205;SDS011;36098;48.390;10.856;2023-06-24T02:12:37;2.22;;;1.77;;
50205;SDS011;36098;48.390;10.856;2023-06-24T02:15:04;2.65;;;1.90;;
50205;SDS011;36098;48.390;10.856;2023-06-24T02:17:31;2.10;;;1.80;;
50205;SDS011;36098;48.390;10.856;2023-06-24T02:19:57;2.67;;;2.05;;
50205;SDS011;36098;48.390;10.856;2023-06-24T02:22:23;2.72;;;2.28;;
50205;SDS011;36098;48.390;10.856;2023-06-24T02:24:49;2.70;;;1.80;;
50205;SDS011;36098;48.390;10.856;2023-06-24T02:27:15;2.72;;;1.95;;
50205;SDS011;36098;48.390;10.856;2023-06-24T02:29:41;2.40;;;1.80;;
50205;SDS011;36098;48.390;10.856;2023-06-24T02:32:08;2.30;;;1.90;;
50205;SDS011;36098;48.390;10.856;2023-06-24T02:34:34;2.22;;;1.70;;
50205;SDS011;36098;48.390;10.856;2023-06-24T02:36:59;2.47;;;1.88;;
50205;SDS011;36098;48.390;10.856;2023-06-24T02:39:24;2.28;;;1.83;;
50205;SDS011;36098;48.390;10.856;2023-06-24T02:41:50;2.50;;;1.80;;
50205;SDS011;36098;48.390;10.856;2023-06-24T02:44:15;1.80;;;1.50;;
50205;SDS011;36098;48.390;10.856;2023-06-24T02:46:42;2.75;;;1.80;;
50205;SDS011;36098;48.390;10.856;2023-06-24T02:49:09;1.92;;;1.67;;
50205;SDS011;36098;48.390;10.856;2023-06-24T02:51:37;3.05;;;2.00;;
50205;SDS011;36098;48.390;10.856;2023-06-24T02:54:04;2.20;;;1.80;;
50205;SDS011;36098;48.390;10.856;2023-06-24T02:56:29;1.98;;;1.45;;
50205;SDS011;36098;48.390;10.856;2023-06-24T02:58:55;2.17;;;1.58;;
50205;SDS011;36098;48.390;10.856;2023-06-24T03:01:21;3.13;;;1.90;;
50205;SDS011;36098;48.390;10.856;2023-06-24T03:03:51;2.38;;;2.00;;
50205;SDS011;36098;48.390;10.856;2023-06-24T03:06:18;2.75;;;1.98;;
50205;SDS011;36098;48.390;10.856;2023-06-24T03:08:45;2.88;;;1.90;;
50205;SDS011;36098;48.390;10.856;2023-06-24T03:11:13;2.55;;;1.70;;
50205;SDS011;36098;48.390;10.856;2023-06-24T03:13:39;3.10;;;1.88;;
50205;SDS011;36098;48.390;10.856;2023-06-24T03:16:04;2.83;;;1.70;;
50205;SDS011;36098;48.390;10.856;2023-06-24T03:18:30;2.25;;;1.80;;
50205;SDS011;36098;48.390;10.856;2023-06-24T03:20:55;2.65;;;1.90;;
50205;SDS011;36098;48.390;10.856;2023-06-24T03:23:20;2.60;;;1.90;;
50205;SDS011;36098;48.390;10.856;2023-06-24T03:25:45;2.45;;;1.80;;
50205;SDS011;36098;48.390;10.856;2023-06-24T03:28:11;2.42;;;1.90;;
50205;SDS011;36098;48.390;10.856;2023-06-24T03:30:36;2.15;;;1.73;;
50205;SDS011;36098;48.390;10.856;2023-06-24T03:33:01;2.60;;;2.00;;
50205;SDS011;36098;48.390;10.856;2023-06-24T03:35:27;2.53;;;1.70;;
50205;SDS011;36098;48.390;10.856;2023-06-24T03:37:52;1.85;;;1.65;;
50205;SDS011;36098;48.390;10.856;2023-06-24T03:40:17;2.72;;;2.03;;
50205;SDS011;36098;48.390;10.856;2023-06-24T03:42:43;2.40;;;1.75;;
50205;SDS011;36098;48.390;10.856;2023-06-24T03:45:08;2.30;;;1.67;;
50205;SDS011;36098;48.390;10.856;2023-06-24T03:47:33;2.05;;;1.75;;
50205;SDS011;36098;48.390;10.856;2023-06-24T03:49:59;2.55;;;1.90;;
50205;SDS011;36098;48.390;10.856;2023-06-24T03:52:24;2.20;;;1.77;;
50205;SDS011;36098;48.390;10.856;2023-06-24T03:54:49;2.88;;;1.90;;
50205;SDS011;36098;48.390;10.856;2023-06-24T03:57:15;2.40;;;1.77;;
50205;SDS011;36098;48.390;10.856;2023-06-24T03:59:40;2.75;;;1.83;;
50205;SDS011;36098;48.390;10.856;2023-06-24T04:02:05;2.03;;;1.80;;
50205;SDS011;36098;48.390;10.856;2023-06-24T04:04:34;2.63;;;1.77;;
50205;SDS011;36098;48.390;10.856;2023-06-24T04:07:00;2.25;;;1.80;;
50205;SDS011;36098;48.390;10.856;2023-06-24T04:09:25;1.98;;;1.60;;
50205;SDS011;36098;48.390;10.856;2023-06-24T04:11:50;2.35;;;1.70;;
50205;SDS011;36098;48.390;10.856;2023-06-24T04:14:16;2.53;;;1.90;;
50205;SDS011;36098;48.390;10.856;2023-06-24T04:16:41;2.20;;;1.63;;
50205;SDS011;36098;48.390;10.856;2023-06-24T04:19:06;2.38;;;1.90;;
50205;SDS011;36098;48.390;10.856;2023-06-24T04:21:32;2.38;;;1.70;;
50205;SDS011;36098;48.390;10.856;2023-06-24T04:23:57;2.05;;;1.60;;
50205;SDS011;36098;48.390;10.856;2023-06-24T04:26:22;2.33;;;2.00;;
50205;SDS011;36098;48.390;10.856;2023-06-24T04:28:47;2.33;;;1.63;;
50205;SDS011;36098;48.390;10.856;2023-06-24T04:31:13;2.83;;;2.00;;
50205;SDS011;36098;48.390;10.856;2023-06-24T04:33:38;2.42;;;1.70;;
50205;SDS011;36098;48.390;10.856;2023-06-24T04:36:03;2.13;;;1.60;;
50205;SDS011;36098;48.390;10.856;2023-06-24T04:38:29;2.40;;;1.90;;
50205;SDS011;36098;48.390;10.856;2023-06-24T04:40:54;2.38;;;1.88;;
50205;SDS011;36098;48.390;10.856;2023-06-24T04:43:20;3.28;;;1.90;;
50205;SDS011;36098;48.390;10.856;2023-06-24T04:45:45;2.40;;;1.73;;
50205;SDS011;36098;48.390;10.856;2023-06-24T04:48:10;1.95;;;1.75;;
50205;SDS011;36098;48.390;10.856;2023-06-24T04:50:35;2.42;;;1.85;;
50205;SDS011;36098;48.390;10.856;2023-06-24T04:53:01;2.50;;;1.90;;
50205;SDS011;36098;48.390;10.856;2023-06-24T04:55:27;2.85;;;2.00;;
50205;SDS011;36098;48.390;10.856;2023-06-24T04:57:52;2.15;;;1.80;;
50205;SDS011;36098;48.390;10.856;2023-06-24T05:00:17;2.80;;;1.92;;
50205;SDS011;36098;48.390;10.856;2023-06-24T05:02:43;2.40;;;1.67;;
50205;SDS011;36098;48.390;10.856;2023-06-24T05:05:08;2.00;;;1.70;;
50205;SDS011;36098;48.390;10.856;2023-06-24T05:07:33;2.50;;;1.90;;
50205;SDS011;36098;48.390;10.856;2023-06-24T05:09:59;2.50;;;1.90;;
50205;SDS011;36098;48.390;10.856;2023-06-24T05:12:24;2.15;;;1.75;;
50205;SDS011;36098;48.390;10.856;2023-06-24T05:14:50;2.90;;;2.05;;
50205;SDS011;36098;48.390;10.856;2023-06-24T05:17:17;2.53;;;1.90;;
50205;SDS011;36098;48.390;10.856;2023-06-24T05:19:42;2.25;;;1.83;;
50205;SDS011;36098;48.390;10.856;2023-06-24T05:22:08;2.00;;;1.60;;
50205;SDS011;36098;48.390;10.856;2023-06-24T05:24:35;2.22;;;1.77;;
50205;SDS011;36098;48.390;10.856;2023-06-24T05:27:03;2.10;;;1.90;;
50205;SDS011;36098;48.390;10.856;2023-06-24T05:29:33;2.35;;;1.88;;
50205;SDS011;36098;48.390;10.856;2023-06-24T05:31:59;2.20;;;1.80;;
50205;SDS011;36098;48.390;10.856;2023-06-24T05:34:26;2.58;;;1.85;;
50205;SDS011;36098;48.390;10.856;2023-06-24T05:36:51;1.88;;;1.42;;
50205;SDS011;36098;48.390;10.856;2023-06-24T05:39:17;2.33;;;1.55;;
50205;SDS011;36098;48.390;10.856;2023-06-24T05:41:42;2.90;;;2.10;;
50205;SDS011;36098;48.390;10.856;2023-06-24T05:44:08;2.50;;;1.75;;
50205;SDS011;36098;48.390;10.856;2023-06-24T05:46:35;2.25;;;1.70;;
50205;SDS011;36098;48.390;10.856;2023-06-24T05:49:00;2.60;;;2.08;;
50205;SDS011;36098;48.390;10.856;2023-06-24T05:51:25;2.28;;;1.77;;
50205;SDS011;36098;48.390;10.856;2023-06-24T05:53:51;2.88;;;2.08;;
50205;SDS011;36098;48.390;10.856;2023-06-24T05:56:16;1.70;;;1.60;;
50205;SDS011;36098;48.390;10.856;2023-06-24T05:58:41;2.70;;;1.80;;
50205;SDS011;36098;48.390;10.856;2023-06-24T06:01:07;2.38;;;1.80;;
50205;SDS011;36098;48.390;10.856;2023-06-24T06:03:34;2.92;;;1.88;;
50205;SDS011;36098;48.390;10.856;2023-06-24T06:05:59;4.38;;;1.77;;
50205;SDS011;36098;48.390;10.856;2023-06-24T06:08:24;2.38;;;1.80;;
50205;SDS011;36098;48.390;10.856;2023-06-24T06:10:50;2.55;;;1.77;;
50205;SDS011;36098;48.390;10.856;2023-06-24T06:13:15;2.88;;;1.80;;
50205;SDS011;36098;48.390;10.856;2023-06-24T06:15:40;3.55;;;2.00;;
50205;SDS011;36098;48.390;10.856;2023-06-24T06:18:05;2.78;;;1.73;;
50205;SDS011;36098;48.390;10.856;2023-06-24T06:20:30;2.08;;;1.58;;
50205;SDS011;36098;48.390;10.856;2023-06-24T06:22:56;2.15;;;1.75;;
50205;SDS011;36098;48.390;10.856;2023-06-24T06:25:21;2.42;;;1.70;;
50205;SDS011;36098;48.390;10.856;2023-06-24T06:27:46;2.13;;;1.77;;
50205;SDS011;36098;48.390;10.856;2023-06-24T06:30:12;1.92;;;1.63;;
50205;SDS011;36098;48.390;10.856;2023-06-24T06:32:38;4.50;;;1.60;;
50205;SDS011;36098;48.390;10.856;2023-06-24T06:35:04;2.67;;;1.67;;
50205;SDS011;36098;48.390;10.856;2023-06-24T06:37:29;1.88;;;1.55;;
50205;SDS011;36098;48.390;10.856;2023-06-24T06:39:54;3.72;;;1.70;;
50205;SDS011;36098;48.390;10.856;2023-06-24T06:42:20;3.72;;;2.10;;
50205;SDS011;36098;48.390;10.856;2023-06-24T06:44:45;5.82;;;2.20;;
50205;SDS011;36098;48.390;10.856;2023-06-24T06:47:10;3.85;;;2.10;;
50205;SDS011;36098;48.390;10.856;2023-06-24T06:49:36;5.53;;;2.42;;
50205;SDS011;36098;48.390;10.856;2023-06-24T06:52:01;3.88;;;2.65;;
50205;SDS011;36098;48.390;10.856;2023-06-24T06:54:26;4.53;;;2.40;;
50205;SDS011;36098;48.390;10.856;2023-06-24T06:56:51;4.13;;;2.92;;
50205;SDS011;36098;48.390;10.856;2023-06-24T06:59:17;3.58;;;2.72;;
50205;SDS011;36098;48.390;10.856;2023-06-24T07:01:42;6.00;;;2.42;;
50205;SDS011;36098;48.390;10.856;2023-06-24T07:04:08;6.00;;;2.55;;
50205;SDS011;36098;48.390;10.856;2023-06-24T07:06:33;3.30;;;2.20;;
50205;SDS011;36098;48.390;10.856;2023-06-24T07:08:58;4.40;;;2.65;;
50205;SDS011;36098;48.390;10.856;2023-06-24T07:11:24;4.68;;;2.72;;
50205;SDS011;36098;48.390;10.856;2023-06-24T07:13:50;4.40;;;2.50;;
50205;SDS011;36098;48.390;10.856;2023-06-24T07:16:16;4.47;;;2.38;;
50205;SDS011;36098;48.390;10.856;2023-06-24T07:18:42;3.95;;;2.65;;
50205;SDS011;36098;48.390;10.856;2023-06-24T07:21:07;6.10;;;2.50;;
50205;SDS011;36098;48.390;10.856;2023-06-24T07:23:33;4.20;;;2.38;;
50205;SDS011;36098;48.390;10.856;2023-06-24T07:25:58;6.43;;;2.90;;
50205;SDS011;36098;48.390;10.856;2023-06-24T07:28:23;6.15;;;2.47;;
50205;SDS011;36098;48.390;10.856;2023-06-24T07:30:48;4.55;;;2.35;;
50205;SDS011;36098;48.390;10.856;2023-06-24T07:33:14;5.18;;;2.75;;
50205;SDS011;36098;48.390;10.856;2023-06-24T07:35:39;5.43;;;2.53;;
50205;SDS011;36098;48.390;10.856;2023-06-24T07:38:04;7.82;;;2.78;;
50205;SDS011;36098;48.390;10.856;2023-06-24T07:40:30;8.02;;;2.80;;
50205;SDS011;36098;48.390;10.856;2023-06-24T07:42:55;5.65;;;2.45;;
50205;SDS011;36098;48.390;10.856;2023-06-24T07:45:20;5.90;;;2.58;;
50205;SDS011;36098;48.390;10.856;2023-06-24T07:47:46;6.60;;;2.65;;
50205;SDS011;36098;48.390;10.856;2023-06-24T07:50:11;5.88;;;2.97;;
50205;SDS011;36098;48.390;10.856;2023-06-24T07:52:37;4.88;;;2.70;;
50205;SDS011;36098;48.390;10.856;2023-06-24T07:55:03;4.13;;;2.55;;
50205;SDS011;36098;48.390;10.856;2023-06-24T07:57:29;5.82;;;2.80;;
50205;SDS011;36098;48.390;10.856;2023-06-24T07:59:55;5.80;;;2.75;;
50205;SDS011;36098;48.390;10.856;2023-06-24T08:02:20;5.03;;;2.88;;
50205;SDS011;36098;48.390;10.856;2023-06-24T08:04:45;3.38;;;2.60;;
50205;SDS011;36098;48.390;10.856;2023-06-24T08:07:11;3.50;;;2.70;;
50205;SDS011;36098;48.390;10.856;2023-06-24T08:09:36;9.32;;;2.85;;
50205;SDS011;36098;48.390;10.856;2023-06-24T08:12:01;5.10;;;2.45;;
50205;SDS011;36098;48.390;10.856;2023-06-24T08:14:27;5.60;;;3.15;;
50205;SDS011;36098;48.390;10.856;2023-06-24T08:16:52;4.18;;;2.85;;
50205;SDS011;36098;48.390;10.856;2023-06-24T08:19:17;5.82;;;3.47;;
50205;SDS011;36098;48.390;10.856;2023-06-24T08:21:43;4.57;;;3.00;;
50205;SDS011;36098;48.390;10.856;2023-06-24T08:24:08;3.22;;;2.70;;
50205;SDS011;36098;48.390;10.856;2023-06-24T08:26:33;5.97;;;3.00;;
50205;SDS011;36098;48.390;10.856;2023-06-24T08:28:58;3.17;;;2.67;;
50205;SDS011;36098;48.390;10.856;2023-06-24T08:31:24;4.35;;;2.60;;
50205;SDS011;36098;48.390;10.856;2023-06-24T08:33:53;5.55;;;2.90;;
50205;SDS011;36098;48.390;10.856;2023-06-24T08:36:21;6.10;;;2.60;;
50205;SDS011;36098;48.390;10.856;2023-06-24T08:38:47;4.10;;;2.63;;
50205;SDS011;36098;48.390;10.856;2023-06-24T08:41:12;4.85;;;2.80;;
50205;SDS011;36098;48.390;10.856;2023-06-24T08:43:37;4.95;;;2.85;;
50205;SDS011;36098;48.390;10.856;2023-06-24T08:46:03;3.97;;;2.90;;
50205;SDS011;36098;48.390;10.856;2023-06-24T08:48:29;5.25;;;2.80;;
50205;SDS011;36098;48.390;10.856;2023-06-24T08:50:55;5.28;;;3.00;;
50205;SDS011;36098;48.390;10.856;2023-06-24T08:53:23;4.10;;;3.08;;
50205;SDS011;36098;48.390;10.856;2023-06-24T08:55:51;3.70;;;2.80;;
50205;SDS011;36098;48.390;10.856;2023-06-24T08:58:18;5.40;;;3.10;;
50205;SDS011;36098;48.390;10.856;2023-06-24T09:00:44;4.22;;;3.13;;
50205;SDS011;36098;48.390;10.856;2023-06-24T09:03:09;4.43;;;3.17;;
50205;SDS011;36098;48.390;10.856;2023-06-24T09:05:34;6.18;;;4.30;;
50205;SDS011;36098;48.390;10.856;2023-06-24T09:08:00;6.38;;;4.80;;
50205;SDS011;36098;48.390;10.856;2023-06-24T09:10:32;6.65;;;4.43;;
50205;SDS011;36098;48.390;10.856;2023-06-24T09:12:59;7.13;;;4.18;;
50205;SDS011;36098;48.390;10.856;2023-06-24T09:15:31;5.30;;;4.40;;
50205;SDS011;36098;48.390;10.856;2023-06-24T09:17:57;5.38;;;4.25;;
50205;SDS011;36098;48.390;10.856;2023-06-24T09:20:25;7.03;;;4.25;;
50205;SDS011;36098;48.390;10.856;2023-06-24T09:23:01;5.38;;;4.00;;
50205;SDS011;36098;48.390;10.856;2023-06-24T09:25:27;4.80;;;3.90;;
50205;SDS011;36098;48.390;10.856;2023-06-24T09:27:53;5.78;;;4.03;;
50205;SDS011;36098;48.390;10.856;2023-06-24T09:30:23;4.53;;;3.88;;
50205;SDS011;36098;48.390;10.856;2023-06-24T09:32:50;5.97;;;3.80;;
50205;SDS011;36098;48.390;10.856;2023-06-24T09:35:20;7.55;;;3.58;;
50205;SDS011;36098;48.390;10.856;2023-06-24T09:37:50;8.07;;;3.53;;
50205;SDS011;36098;48.390;10.856;2023-06-24T09:40:20;4.87;;;3.63;;
50205;SDS011;36098;48.390;10.856;2023-06-24T09:42:55;6.68;;;3.83;;
50205;SDS011;36098;48.390;10.856;2023-06-24T09:45:22;5.07;;;3.95;;
50205;SDS011;36098;48.390;10.856;2023-06-24T09:47:49;8.48;;;3.97;;
50205;SDS011;36098;48.390;10.856;2023-06-24T09:50:15;7.22;;;3.67;;
50205;SDS011;36098;48.390;10.856;2023-06-24T09:52:40;4.80;;;3.58;;
50205;SDS011;36098;48.390;10.856;2023-06-24T09:55:08;4.70;;;3.45;;
50205;SDS011;36098;48.390;10.856;2023-06-24T09:57:34;4.65;;;3.30;;
50205;SDS011;36098;48.390;10.856;2023-06-24T10:00:00;4.70;;;3.30;;
50205;SDS011;36098;48.390;10.856;2023-06-24T10:02:28;6.85;;;3.78;;
50205;SDS011;36098;48.390;10.856;2023-06-24T10:04:55;3.88;;;3.15;;
50205;SDS011;36098;48.390;10.856;2023-06-24T10:07:21;5.35;;;3.65;;
50205;SDS011;36098;48.390;10.856;2023-06-24T10:09:47;4.55;;;3.55;;
50205;SDS011;36098;48.390;10.856;2023-06-24T10:12:12;4.43;;;3.50;;
50205;SDS011;36098;48.390;10.856;2023-06-24T10:14:37;5.07;;;3.20;;
50205;SDS011;36098;48.390;10.856;2023-06-24T10:17:03;5.60;;;3.58;;
50205;SDS011;36098;48.390;10.856;2023-06-24T10:19:29;5.95;;;3.50;;
50205;SDS011;36098;48.390;10.856;2023-06-24T10:21:57;5.03;;;3.70;;
50205;SDS011;36098;48.390;10.856;2023-06-24T10:24:30;5.70;;;3.33;;
50205;SDS011;36098;48.390;10.856;2023-06-24T10:27:03;6.70;;;4.00;;
50205;SDS011;36098;48.390;10.856;2023-06-24T10:29:33;7.67;;;3.30;;
50205;SDS011;36098;48.390;10.856;2023-06-24T10:32:02;4.32;;;3.67;;
50205;SDS011;36098;48.390;10.856;2023-06-24T10:34:31;5.05;;;3.80;;
50205;SDS011;36098;48.390;10.856;2023-06-24T10:47:33;4.45;;;3.40;;
50205;SDS011;36098;48.390;10.856;2023-06-24T10:49:59;6.38;;;3.63;;
50205;SDS011;36098;48.390;10.856;2023-06-24T10:52:25;5.38;;;3.42;;
50205;SDS011;36098;48.390;10.856;2023-06-24T10:54:51;4.90;;;3.30;;
50205;SDS011;36098;48.390;10.856;2023-06-24T10:57:20;5.78;;;3.13;;
50205;SDS011;36098;48.390;10.856;2023-06-24T10:59:56;4.55;;;3.42;;
50205;SDS011;36098;48.390;10.856;2023-06-24T11:02:23;4.70;;;3.42;;
50205;SDS011;36098;48.390;10.856;2023-06-24T11:04:53;11.57;;;3.20;;
50205;SDS011;36098;48.390;10.856;2023-06-24T11:07:26;4.10;;;3.15;;
50205;SDS011;36098;48.390;10.856;2023-06-24T11:10:15;3.58;;;2.97;;
50205;SDS011;36098;48.390;10.856;2023-06-24T11:12:40;4.20;;;3.38;;
50205;SDS011;36098;48.390;10.856;2023-06-24T11:15:07;3.72;;;3.00;;
50205;SDS011;36098;48.390;10.856;2023-06-24T11:17:36;4.28;;;3.17;;
50205;SDS011;36098;48.390;10.856;2023-06-24T11:20:05;4.25;;;3.03;;
50205;SDS011;36098;48.390;10.856;2023-06-24T11:22:32;4.95;;;3.05;;
50205;SDS011;36098;48.390;10.856;2023-06-24T11:24:57;4.72;;;3.03;;
50205;SDS011;36098;48.390;10.856;2023-06-24T11:29:52;5.28;;;3.47;;
50205;SDS011;36098;48.390;10.856;2023-06-24T11:32:18;5.10;;;3.17;;
50205;SDS011;36098;48.390;10.856;2023-06-24T11:34:43;5.97;;;3.15;;
50205;SDS011;36098;48.390;10.856;2023-06-24T11:37:10;3.28;;;2.78;;
50205;SDS011;36098;48.390;10.856;2023-06-24T11:39:36;3.83;;;3.05;;
50205;SDS011;36098;48.390;10.856;2023-06-24T11:42:01;3.70;;;3.10;;
50205;SDS011;36098;48.390;10.856;2023-06-24T11:44:27;3.38;;;2.85;;
50205;SDS011;36098;48.390;10.856;2023-06-24T11:46:52;7.78;;;3.38;;
50205;SDS011;36098;48.390;10.856;2023-06-24T11:49:18;5.47;;;3.35;;
50205;SDS011;36098;48.390;10.856;2023-06-24T11:51:50;3.65;;;2.70;;
50205;SDS011;36098;48.390;10.856;2023-06-24T11:54:18;6.07;;;3.00;;
50205;SDS011;36098;48.390;10.856;2023-06-24T11:56:49;4.57;;;3.10;;
50205;SDS011;36098;48.390;10.856;2023-06-24T11:59:16;5.07;;;3.00;;
50205;SDS011;36098;48.390;10.856;2023-06-24T12:01:53;3.80;;;2.88;;
50205;SDS011;36098;48.390;10.856;2023-06-24T12:04:20;4.85;;;3.00;;
50205;SDS011;36098;48.390;10.856;2023-06-24T12:06:46;3.92;;;2.72;;
50205;SDS011;36098;48.390;10.856;2023-06-24T12:09:12;4.05;;;2.85;;
50205;SDS011;36098;48.390;10.856;2023-06-24T12:11:37;3.80;;;3.10;;
50205;SDS011;36098;48.390;10.856;2023-06-24T12:14:03;3.55;;;2.90;;
50205;SDS011;36098;48.390;10.856;2023-06-24T12:16:30;4.47;;;2.95;;
50205;SDS011;36098;48.390;10.856;2023-06-24T12:18:55;4.35;;;2.88;;
50205;SDS011;36098;48.390;10.856;2023-06-24T12:21:20;4.20;;;3.00;;
50205;SDS011;36098;48.390;10.856;2023-06-24T12:23:46;3.88;;;2.95;;
50205;SDS011;36098;48.390;10.856;2023-06-24T12:26:11;3.85;;;2.95;;
50205;SDS011;36098;48.390;10.856;2023-06-24T12:28:37;5.20;;;2.95;;
50205;SDS011;36098;48.390;10.856;2023-06-24T12:31:03;4.40;;;3.05;;
50205;SDS011;36098;48.390;10.856;2023-06-24T12:33:28;11.05;;;2.60;;
50205;SDS011;36098;48.390;10.856;2023-06-24T12:35:54;4.90;;;2.92;;
50205;SDS011;36098;48.390;10.856;2023-06-24T12:38:19;4.43;;;3.08;;
50205;SDS011;36098;48.390;10.856;2023-06-24T12:40:45;3.20;;;2.58;;
50205;SDS011;36098;48.390;10.856;2023-06-24T12:43:11;3.42;;;2.65;;
50205;SDS011;36098;48.390;10.856;2023-06-24T12:45:36;4.80;;;2.85;;
50205;SDS011;36098;48.390;10.856;2023-06-24T12:48:05;4.38;;;3.00;;
50205;SDS011;36098;48.390;10.856;2023-06-24T12:50:30;3.63;;;2.88;;
50205;SDS011;36098;48.390;10.856;2023-06-24T12:52:57;4.55;;;2.97;;
50205;SDS011;36098;48.390;10.856;2023-06-24T12:55:23;4.43;;;2.70;;
50205;SDS011;36098;48.390;10.856;2023-06-24T12:57:48;5.95;;;2.30;;
50205;SDS011;36098;48.390;10.856;2023-06-24T13:00:13;4.65;;;2.50;;
50205;SDS011;36098;48.390;10.856;2023-06-24T13:02:39;5.82;;;2.83;;
50205;SDS011;36098;48.390;10.856;2023-06-24T13:05:04;4.22;;;2.92;;
50205;SDS011;36098;48.390;10.856;2023-06-24T13:07:30;3.22;;;2.42;;
50205;SDS011;36098;48.390;10.856;2023-06-24T13:09:55;3.70;;;2.38;;
50205;SDS011;36098;48.390;10.856;2023-06-24T13:12:21;6.15;;;3.03;;
50205;SDS011;36098;48.390;10.856;2023-06-24T13:14:47;4.20;;;2.63;;
50205;SDS011;36098;48.390;10.856;2023-06-24T13:17:12;7.15;;;3.00;;
50205;SDS011;36098;48.390;10.856;2023-06-24T13:19:38;3.97;;;2.95;;
50205;SDS011;36098;48.390;10.856;2023-06-24T13:22:03;4.20;;;2.95;;
50205;SDS011;36098;48.390;10.856;2023-06-24T13:24:29;3.58;;;2.72;;
50205;SDS011;36098;48.390;10.856;2023-06-24T13:26:54;4.57;;;2.80;;
50205;SDS011;36098;48.390;10.856;2023-06-24T13:29:20;4.90;;;2.88;;
50205;SDS011;36098;48.390;10.856;2023-06-24T13:31:46;3.38;;;2.78;;
50205;SDS011;36098;48.390;10.856;2023-06-24T13:34:11;4.80;;;2.88;;
50205;SDS011;36098;48.390;10.856;2023-06-24T13:36:37;4.53;;;2.63;;
50205;SDS011;36098;48.390;10.856;2023-06-24T13:39:03;4.07;;;2.80;;
50205;SDS011;36098;48.390;10.856;2023-06-24T13:41:29;3.83;;;2.50;;
50205;SDS011;36098;48.390;10.856;2023-06-24T13:43:57;8.38;;;3.97;;
50205;SDS011;36098;48.390;10.856;2023-06-24T13:46:25;8.65;;;3.65;;
50205;SDS011;36098;48.390;10.856;2023-06-24T13:48:51;6.55;;;3.60;;
50205;SDS011;36098;48.390;10.856;2023-06-24T13:51:18;4.43;;;3.10;;
50205;SDS011;36098;48.390;10.856;2023-06-24T13:53:44;7.00;;;2.95;;
50205;SDS011;36098;48.390;10.856;2023-06-24T13:56:10;4.45;;;2.70;;
50205;SDS011;36098;48.390;10.856;2023-06-24T13:58:35;4.60;;;2.90;;
50205;SDS011;36098;48.390;10.856;2023-06-24T14:01:00;4.10;;;2.83;;
50205;SDS011;36098;48.390;10.856;2023-06-24T14:03:26;4.93;;;2.60;;
50205;SDS011;36098;48.390;10.856;2023-06-24T14:05:51;4.03;;;2.60;;
50205;SDS011;36098;48.390;10.856;2023-06-24T14:08:16;3.83;;;2.65;;
50205;SDS011;36098;48.390;10.856;2023-06-24T14:10:42;3.78;;;2.63;;
50205;SDS011;36098;48.390;10.856;2023-06-24T14:13:07;4.20;;;2.50;;
50205;SDS011;36098;48.390;10.856;2023-06-24T14:15:32;5.22;;;2.80;;
50205;SDS011;36098;48.390;10.856;2023-06-24T14:17:58;4.53;;;2.60;;
50205;SDS011;36098;48.390;10.856;2023-06-24T14:20:23;5.13;;;2.65;;
50205;SDS011;36098;48.390;10.856;2023-06-24T14:22:49;4.68;;;2.83;;
50205;SDS011;36098;48.390;10.856;2023-06-24T14:25:15;3.90;;;2.90;;
50205;SDS011;36098;48.390;10.856;2023-06-24T14:27:40;3.42;;;2.70;;
50205;SDS011;36098;48.390;10.856;2023-06-24T14:30:06;4.68;;;2.80;;
50205;SDS011;36098;48.390;10.856;2023-06-24T14:32:32;3.70;;;2.70;;
50205;SDS011;36098;48.390;10.856;2023-06-24T14:34:57;3.95;;;2.92;;
50205;SDS011;36098;48.390;10.856;2023-06-24T14:37:22;6.03;;;3.15;;
50205;SDS011;36098;48.390;10.856;2023-06-24T14:39:48;4.63;;;2.90;;
50205;SDS011;36098;48.390;10.856;2023-06-24T14:42:13;4.38;;;2.70;;
50205;SDS011;36098;48.390;10.856;2023-06-24T14:44:38;3.63;;;3.00;;
50205;SDS011;36098;48.390;10.856;2023-06-24T14:47:03;4.50;;;2.95;;